sensor_id;sensor_type;location;lat;lon;timestamp;temperature;humidity
4934;DHT22;2482;49.154;8.254;2022-07-06T00:00:55;17.00;99.90
4934;DHT22;2482;49.154;8.254;2022-07-06T00:03:22;17.10;99.90
4934;DHT22;2482;49.154;8.254;2022-07-06T00:05:49;17.10;99.90
4934;DHT22;2482;49.154;8.254;2022-07-06T00:08:16;17.00;99.90
4934;DHT22;2482;49.154;8.254;2022-07-06T00:10:43;16.90;99.90
4934;DHT22;2482;49.154;8.254;2022-07-06T00:13:10;17.00;99.90
4934;DHT22;2482;49.154;8.254;2022-07-06T00:15:37;16.90;99.90
4934;DHT22;2482;49.154;8.254;2022-07-06T00:18:04;16.90;99.90
4934;DHT22;2482;49.154;8.254;2022-07-06T00:20:31;16.70;99.90
4934;DHT22;2482;49.154;8.254;2022-07-06T00:22:58;16.50;99.90
4934;DHT22;2482;49.154;8.254;2022-07-06T00:25:25;16.50;99.90
4934;DHT22;2482;49.154;8.254;2022-07-06T00:27:52;16.60;99.90
4934;DHT22;2482;49.154;8.254;2022-07-06T00:30:19;16.60;99.90
4934;DHT22;2482;49.154;8.254;2022-07-06T00:32:46;16.40;99.90
4934;DHT22;2482;49.154;8.254;2022-07-06T00:35:13;16.40;99.90
4934;DHT22;2482;49.154;8.254;2022-07-06T00:37:40;16.30;99.90
4934;DHT22;2482;49.154;8.254;2022-07-06T00:40:07;16.40;99.90
4934;DHT22;2482;49.154;8.254;2022-07-06T00:42:46;16.40;99.90
4934;DHT22;2482;49.154;8.254;2022-07-06T00:45:15;16.40;99.90
4934;DHT22;2482;49.154;8.254;2022-07-06T00:47:43;16.40;99.90
4934;DHT22;2482;49.154;8.254;2022-07-06T00:50:13;16.40;99.90
4934;DHT22;2482;49.154;8.254;2022-07-06T00:52:44;16.50;99.90
4934;DHT22;2482;49.154;8.254;2022-07-06T00:55:13;16.40;99.90
4934;DHT22;2482;49.154;8.254;2022-07-06T00:57:42;16.30;99.90
4934;DHT22;2482;49.154;8.254;2022-07-06T01:00:11;16.30;99.90
4934;DHT22;2482;49.154;8.254;2022-07-06T01:02:40;16.20;99.90
4934;DHT22;2482;49.154;8.254;2022-07-06T01:05:09;16.40;99.90
4934;DHT22;2482;49.154;8.254;2022-07-06T01:07:39;16.30;99.90
4934;DHT22;2482;49.154;8.254;2022-07-06T01:10:08;16.50;99.90
4934;DHT22;2482;49.154;8.254;2022-07-06T01:12:38;16.40;99.90
4934;DHT22;2482;49.154;8.254;2022-07-06T01:15:09;16.20;99.90
4934;DHT22;2482;49.154;8.254;2022-07-06T01:17:41;16.20;99.90
4934;DHT22;2482;49.154;8.254;2022-07-06T01:22:41;16.10;99.90
4934;DHT22;2482;49.154;8.254;2022-07-06T01:25:09;15.90;99.90
4934;DHT22;2482;49.154;8.254;2022-07-06T01:27:38;15.80;99.90
4934;DHT22;2482;49.154;8.254;2022-07-06T01:32:36;15.50;99.90
4934;DHT22;2482;49.154;8.254;2022-07-06T01:35:10;15.50;99.90
4934;DHT22;2482;49.154;8.254;2022-07-06T01:37:38;15.60;99.90
4934;DHT22;2482;49.154;8.254;2022-07-06T01:40:07;15.60;99.90
4934;DHT22;2482;49.154;8.254;2022-07-06T01:42:36;15.60;99.90
4934;DHT22;2482;49.154;8.254;2022-07-06T01:45:04;15.70;99.90
4934;DHT22;2482;49.154;8.254;2022-07-06T01:47:31;15.60;99.90
4934;DHT22;2482;49.154;8.254;2022-07-06T01:50:01;15.60;99.90
4934;DHT22;2482;49.154;8.254;2022-07-06T01:52:31;15.50;99.90
4934;DHT22;2482;49.154;8.254;2022-07-06T01:54:58;15.50;99.90
4934;DHT22;2482;49.154;8.254;2022-07-06T01:57:25;15.60;99.90
4934;DHT22;2482;49.154;8.254;2022-07-06T01:59:52;15.70;99.90
4934;DHT22;2482;49.154;8.254;2022-07-06T02:02:19;15.70;99.90
4934;DHT22;2482;49.154;8.254;2022-07-06T02:04:46;15.60;99.90
4934;DHT22;2482;49.154;8.254;2022-07-06T02:07:13;15.50;99.90
4934;DHT22;2482;49.154;8.254;2022-07-06T02:09:40;15.60;99.90
4934;DHT22;2482;49.154;8.254;2022-07-06T02:12:07;15.50;99.90
4934;DHT22;2482;49.154;8.254;2022-07-06T02:14:34;15.40;99.90
4934;DHT22;2482;49.154;8.254;2022-07-06T02:17:01;15.40;99.90
4934;DHT22;2482;49.154;8.254;2022-07-06T02:19:28;15.50;99.90
4934;DHT22;2482;49.154;8.254;2022-07-06T02:21:55;15.40;99.90
4934;DHT22;2482;49.154;8.254;2022-07-06T02:24:22;15.30;99.90
4934;DHT22;2482;49.154;8.254;2022-07-06T02:26:49;15.30;99.90
4934;DHT22;2482;49.154;8.254;2022-07-06T02:29:16;15.10;99.90
4934;DHT22;2482;49.154;8.254;2022-07-06T02:31:43;15.10;99.90
4934;DHT22;2482;49.154;8.254;2022-07-06T02:34:10;15.10;99.90
4934;DHT22;2482;49.154;8.254;2022-07-06T02:36:37;15.00;99.90
4934;DHT22;2482;49.154;8.254;2022-07-06T02:39:04;15.00;99.90
4934;DHT22;2482;49.154;8.254;2022-07-06T02:41:31;15.10;99.90
4934;DHT22;2482;49.154;8.254;2022-07-06T02:43:58;15.10;99.90
4934;DHT22;2482;49.154;8.254;2022-07-06T02:46:25;15.20;99.90
4934;DHT22;2482;49.154;8.254;2022-07-06T02:48:52;15.20;99.90
4934;DHT22;2482;49.154;8.254;2022-07-06T02:51:19;15.10;99.90
4934;DHT22;2482;49.154;8.254;2022-07-06T02:53:46;15.10;99.90
4934;DHT22;2482;49.154;8.254;2022-07-06T02:56:13;14.90;99.90
4934;DHT22;2482;49.154;8.254;2022-07-06T02:58:40;14.90;99.90
4934;DHT22;2482;49.154;8.254;2022-07-06T03:01:07;15.00;99.90
4934;DHT22;2482;49.154;8.254;2022-07-06T03:03:35;15.00;99.90
4934;DHT22;2482;49.154;8.254;2022-07-06T03:06:02;15.00;99.90
4934;DHT22;2482;49.154;8.254;2022-07-06T03:08:29;15.00;99.90
4934;DHT22;2482;49.154;8.254;2022-07-06T03:10:56;15.10;99.90
4934;DHT22;2482;49.154;8.254;2022-07-06T03:13:22;15.20;99.90
4934;DHT22;2482;49.154;8.254;2022-07-06T03:15:49;15.40;99.90
4934;DHT22;2482;49.154;8.254;2022-07-06T03:18:16;15.40;99.90
4934;DHT22;2482;49.154;8.254;2022-07-06T03:20:44;15.40;99.90
4934;DHT22;2482;49.154;8.254;2022-07-06T03:23:11;15.40;99.90
4934;DHT22;2482;49.154;8.254;2022-07-06T03:25:38;15.40;99.90
4934;DHT22;2482;49.154;8.254;2022-07-06T03:28:05;15.60;99.90
4934;DHT22;2482;49.154;8.254;2022-07-06T03:30:32;15.60;99.90
4934;DHT22;2482;49.154;8.254;2022-07-06T03:32:59;15.60;99.90
4934;DHT22;2482;49.154;8.254;2022-07-06T03:35:26;15.40;99.90
4934;DHT22;2482;49.154;8.254;2022-07-06T03:37:53;15.30;99.90
4934;DHT22;2482;49.154;8.254;2022-07-06T03:40:20;15.30;99.90
4934;DHT22;2482;49.154;8.254;2022-07-06T03:42:47;15.40;99.90
4934;DHT22;2482;49.154;8.254;2022-07-06T03:45:14;15.40;99.90
4934;DHT22;2482;49.154;8.254;2022-07-06T03:47:41;15.30;99.90
4934;DHT22;2482;49.154;8.254;2022-07-06T03:50:08;15.10;99.90
4934;DHT22;2482;49.154;8.254;2022-07-06T03:52:36;15.10;99.90
4934;DHT22;2482;49.154;8.254;2022-07-06T03:55:10;15.10;99.90
4934;DHT22;2482;49.154;8.254;2022-07-06T03:57:38;15.10;99.90
4934;DHT22;2482;49.154;8.254;2022-07-06T04:11:27;15.50;99.90
4934;DHT22;2482;49.154;8.254;2022-07-06T04:13:54;15.80;99.90
4934;DHT22;2482;49.154;8.254;2022-07-06T04:16:21;15.70;99.90
4934;DHT22;2482;49.154;8.254;2022-07-06T04:18:48;15.80;99.90
4934;DHT22;2482;49.154;8.254;2022-07-06T04:21:15;15.90;99.90
4934;DHT22;2482;49.154;8.254;2022-07-06T04:23:42;16.20;99.90
4934;DHT22;2482;49.154;8.254;2022-07-06T04:26:09;16.10;99.90
4934;DHT22;2482;49.154;8.254;2022-07-06T04:28:36;16.20;99.90
4934;DHT22;2482;49.154;8.254;2022-07-06T04:31:03;16.00;99.90
4934;DHT22;2482;49.154;8.254;2022-07-06T04:33:30;15.80;99.90
4934;DHT22;2482;49.154;8.254;2022-07-06T04:35:57;15.60;99.90
4934;DHT22;2482;49.154;8.254;2022-07-06T04:38:24;15.70;99.90
4934;DHT22;2482;49.154;8.254;2022-07-06T04:40:52;15.80;99.90
4934;DHT22;2482;49.154;8.254;2022-07-06T04:43:19;15.80;99.90
4934;DHT22;2482;49.154;8.254;2022-07-06T04:45:46;15.90;99.90
4934;DHT22;2482;49.154;8.254;2022-07-06T04:48:13;16.10;99.90
4934;DHT22;2482;49.154;8.254;2022-07-06T04:50:40;16.40;99.90
4934;DHT22;2482;49.154;8.254;2022-07-06T04:53:07;16.80;99.90
4934;DHT22;2482;49.154;8.254;2022-07-06T04:55:34;17.40;99.90
4934;DHT22;2482;49.154;8.254;2022-07-06T04:58:01;17.90;99.90
4934;DHT22;2482;49.154;8.254;2022-07-06T05:00:28;18.10;99.90
4934;DHT22;2482;49.154;8.254;2022-07-06T05:02:55;18.10;99.90
4934;DHT22;2482;49.154;8.254;2022-07-06T05:05:23;18.10;99.90
4934;DHT22;2482;49.154;8.254;2022-07-06T05:07:50;18.30;99.90
4934;DHT22;2482;49.154;8.254;2022-07-06T05:10:16;18.50;99.90
4934;DHT22;2482;49.154;8.254;2022-07-06T05:12:44;18.50;99.90
4934;DHT22;2482;49.154;8.254;2022-07-06T05:15:11;18.60;99.90
4934;DHT22;2482;49.154;8.254;2022-07-06T05:17:37;18.50;99.90
4934;DHT22;2482;49.154;8.254;2022-07-06T05:20:05;18.50;99.90
4934;DHT22;2482;49.154;8.254;2022-07-06T05:22:33;18.50;99.90
4934;DHT22;2482;49.154;8.254;2022-07-06T05:25:00;18.60;99.90
4934;DHT22;2482;49.154;8.254;2022-07-06T05:27:27;18.40;99.90
4934;DHT22;2482;49.154;8.254;2022-07-06T05:29:54;18.10;99.90
4934;DHT22;2482;49.154;8.254;2022-07-06T05:32:21;18.00;99.90
4934;DHT22;2482;49.154;8.254;2022-07-06T05:34:50;18.00;99.90
4934;DHT22;2482;49.154;8.254;2022-07-06T05:37:17;18.20;99.90
4934;DHT22;2482;49.154;8.254;2022-07-06T05:39:44;18.30;99.90
4934;DHT22;2482;49.154;8.254;2022-07-06T05:42:13;18.40;99.90
4934;DHT22;2482;49.154;8.254;2022-07-06T05:44:40;18.40;99.90
4934;DHT22;2482;49.154;8.254;2022-07-06T05:47:07;18.30;99.90
4934;DHT22;2482;49.154;8.254;2022-07-06T05:49:53;18.50;99.90
4934;DHT22;2482;49.154;8.254;2022-07-06T05:52:55;18.60;99.90
4934;DHT22;2482;49.154;8.254;2022-07-06T05:55:24;18.60;99.90
4934;DHT22;2482;49.154;8.254;2022-07-06T05:57:52;18.80;99.90
4934;DHT22;2482;49.154;8.254;2022-07-06T06:00:21;18.70;99.90
4934;DHT22;2482;49.154;8.254;2022-07-06T06:02:49;18.60;99.90
4934;DHT22;2482;49.154;8.254;2022-07-06T06:05:17;18.70;99.90
4934;DHT22;2482;49.154;8.254;2022-07-06T06:07:52;18.90;99.90
4934;DHT22;2482;49.154;8.254;2022-07-06T06:10:23;18.70;99.90
4934;DHT22;2482;49.154;8.254;2022-07-06T06:12:51;18.60;99.90
4934;DHT22;2482;49.154;8.254;2022-07-06T06:15:20;18.60;99.90
4934;DHT22;2482;49.154;8.254;2022-07-06T06:17:48;18.40;99.90
4934;DHT22;2482;49.154;8.254;2022-07-06T06:20:15;18.50;99.90
4934;DHT22;2482;49.154;8.254;2022-07-06T06:22:55;18.50;99.90
4934;DHT22;2482;49.154;8.254;2022-07-06T06:25:31;18.50;99.90
4934;DHT22;2482;49.154;8.254;2022-07-06T06:28:01;18.50;99.90
4934;DHT22;2482;49.154;8.254;2022-07-06T06:30:29;18.60;99.90
4934;DHT22;2482;49.154;8.254;2022-07-06T06:33:16;18.80;99.90
4934;DHT22;2482;49.154;8.254;2022-07-06T06:35:47;18.90;99.90
4934;DHT22;2482;49.154;8.254;2022-07-06T06:38:16;19.00;99.90
4934;DHT22;2482;49.154;8.254;2022-07-06T06:40:44;18.90;99.90
4934;DHT22;2482;49.154;8.254;2022-07-06T06:43:11;19.00;99.90
4934;DHT22;2482;49.154;8.254;2022-07-06T06:45:38;18.90;99.90
4934;DHT22;2482;49.154;8.254;2022-07-06T06:48:06;18.80;99.90
4934;DHT22;2482;49.154;8.254;2022-07-06T06:50:41;18.80;99.90
4934;DHT22;2482;49.154;8.254;2022-07-06T06:53:09;18.60;99.90
4934;DHT22;2482;49.154;8.254;2022-07-06T06:55:36;18.70;99.90
4934;DHT22;2482;49.154;8.254;2022-07-06T06:58:03;18.70;99.90
4934;DHT22;2482;49.154;8.254;2022-07-06T07:00:31;19.00;99.90
4934;DHT22;2482;49.154;8.254;2022-07-06T07:02:58;19.10;99.90
4934;DHT22;2482;49.154;8.254;2022-07-06T07:05:25;19.20;99.90
4934;DHT22;2482;49.154;8.254;2022-07-06T07:07:52;19.20;99.90
4934;DHT22;2482;49.154;8.254;2022-07-06T07:10:29;19.20;99.90
4934;DHT22;2482;49.154;8.254;2022-07-06T07:12:56;19.10;99.90
4934;DHT22;2482;49.154;8.254;2022-07-06T07:15:23;19.30;99.90
4934;DHT22;2482;49.154;8.254;2022-07-06T07:17:50;19.20;99.90
4934;DHT22;2482;49.154;8.254;2022-07-06T07:20:17;19.30;99.90
4934;DHT22;2482;49.154;8.254;2022-07-06T07:22:44;19.20;99.90
4934;DHT22;2482;49.154;8.254;2022-07-06T07:25:11;19.10;99.90
4934;DHT22;2482;49.154;8.254;2022-07-06T07:27:38;19.20;99.90
4934;DHT22;2482;49.154;8.254;2022-07-06T07:30:06;19.20;99.90
4934;DHT22;2482;49.154;8.254;2022-07-06T07:32:35;19.40;99.90
4934;DHT22;2482;49.154;8.254;2022-07-06T07:35:04;19.30;99.90
4934;DHT22;2482;49.154;8.254;2022-07-06T07:37:32;19.30;99.90
4934;DHT22;2482;49.154;8.254;2022-07-06T07:40:02;19.20;99.90
4934;DHT22;2482;49.154;8.254;2022-07-06T07:42:29;19.20;99.90
4934;DHT22;2482;49.154;8.254;2022-07-06T07:44:56;19.30;99.90
4934;DHT22;2482;49.154;8.254;2022-07-06T07:47:23;19.40;99.90
4934;DHT22;2482;49.154;8.254;2022-07-06T07:49:50;19.50;99.90
4934;DHT22;2482;49.154;8.254;2022-07-06T07:52:18;19.50;99.90
4934;DHT22;2482;49.154;8.254;2022-07-06T07:54:45;19.60;99.90
4934;DHT22;2482;49.154;8.254;2022-07-06T07:57:23;19.80;99.90
4934;DHT22;2482;49.154;8.254;2022-07-06T07:59:50;19.90;99.90
4934;DHT22;2482;49.154;8.254;2022-07-06T08:02:22;20.00;99.90
4934;DHT22;2482;49.154;8.254;2022-07-06T08:04:49;19.90;99.90
4934;DHT22;2482;49.154;8.254;2022-07-06T08:07:17;19.90;99.90
4934;DHT22;2482;49.154;8.254;2022-07-06T08:09:44;20.20;99.90
4934;DHT22;2482;49.154;8.254;2022-07-06T08:12:12;20.40;99.90
4934;DHT22;2482;49.154;8.254;2022-07-06T08:14:40;20.10;99.90
4934;DHT22;2482;49.154;8.254;2022-07-06T08:17:07;20.10;99.90
4934;DHT22;2482;49.154;8.254;2022-07-06T08:19:35;20.00;99.90
4934;DHT22;2482;49.154;8.254;2022-07-06T08:22:03;20.10;99.90
4934;DHT22;2482;49.154;8.254;2022-07-06T08:24:39;20.10;99.90
4934;DHT22;2482;49.154;8.254;2022-07-06T08:27:07;20.30;99.90
4934;DHT22;2482;49.154;8.254;2022-07-06T08:29:34;20.50;99.90
4934;DHT22;2482;49.154;8.254;2022-07-06T08:32:02;20.50;99.90
4934;DHT22;2482;49.154;8.254;2022-07-06T08:34:42;20.60;99.90
4934;DHT22;2482;49.154;8.254;2022-07-06T08:37:10;20.70;99.90
4934;DHT22;2482;49.154;8.254;2022-07-06T08:39:38;20.70;99.90
4934;DHT22;2482;49.154;8.254;2022-07-06T08:42:07;21.00;99.90
4934;DHT22;2482;49.154;8.254;2022-07-06T08:44:36;20.70;99.90
4934;DHT22;2482;49.154;8.254;2022-07-06T08:47:07;20.60;99.90
4934;DHT22;2482;49.154;8.254;2022-07-06T08:49:34;20.90;99.90
4934;DHT22;2482;49.154;8.254;2022-07-06T08:52:04;21.10;99.90
4934;DHT22;2482;49.154;8.254;2022-07-06T08:54:31;21.00;99.90
4934;DHT22;2482;49.154;8.254;2022-07-06T08:56:59;21.00;99.90
4934;DHT22;2482;49.154;8.254;2022-07-06T08:59:26;21.00;99.90
4934;DHT22;2482;49.154;8.254;2022-07-06T09:01:54;20.90;99.90
4934;DHT22;2482;49.154;8.254;2022-07-06T09:04:22;21.10;99.90
4934;DHT22;2482;49.154;8.254;2022-07-06T09:06:50;21.40;99.90
4934;DHT22;2482;49.154;8.254;2022-07-06T09:09:23;21.40;99.90
4934;DHT22;2482;49.154;8.254;2022-07-06T09:11:51;21.40;99.90
4934;DHT22;2482;49.154;8.254;2022-07-06T09:14:19;21.40;99.90
4934;DHT22;2482;49.154;8.254;2022-07-06T09:16:52;21.60;99.90
4934;DHT22;2482;49.154;8.254;2022-07-06T09:19:28;22.20;99.90
4934;DHT22;2482;49.154;8.254;2022-07-06T09:21:55;22.30;99.90
4934;DHT22;2482;49.154;8.254;2022-07-06T09:24:22;22.30;99.90
4934;DHT22;2482;49.154;8.254;2022-07-06T09:26:49;22.60;99.90
4934;DHT22;2482;49.154;8.254;2022-07-06T09:29:16;22.40;99.90
4934;DHT22;2482;49.154;8.254;2022-07-06T09:31:59;22.40;99.90
4934;DHT22;2482;49.154;8.254;2022-07-06T09:34:46;22.30;99.90
4934;DHT22;2482;49.154;8.254;2022-07-06T09:37:14;22.60;99.90
4934;DHT22;2482;49.154;8.254;2022-07-06T09:39:42;22.80;99.90
4934;DHT22;2482;49.154;8.254;2022-07-06T09:42:12;22.60;99.90
4934;DHT22;2482;49.154;8.254;2022-07-06T09:44:40;22.30;99.90
4934;DHT22;2482;49.154;8.254;2022-07-06T09:47:10;22.00;99.90
4934;DHT22;2482;49.154;8.254;2022-07-06T09:49:39;22.20;99.90
4934;DHT22;2482;49.154;8.254;2022-07-06T09:52:09;22.90;99.90
4934;DHT22;2482;49.154;8.254;2022-07-06T09:54:39;23.20;99.90
4934;DHT22;2482;49.154;8.254;2022-07-06T09:57:07;23.10;99.90
4934;DHT22;2482;49.154;8.254;2022-07-06T09:59:36;23.50;99.90
4934;DHT22;2482;49.154;8.254;2022-07-06T10:02:07;23.40;99.90
4934;DHT22;2482;49.154;8.254;2022-07-06T10:04:35;23.50;99.90
4934;DHT22;2482;49.154;8.254;2022-07-06T10:07:04;22.90;99.90
4934;DHT22;2482;49.154;8.254;2022-07-06T10:09:31;22.90;99.90
4934;DHT22;2482;49.154;8.254;2022-07-06T10:12:02;22.60;99.90
4934;DHT22;2482;49.154;8.254;2022-07-06T10:14:32;22.70;99.90
4934;DHT22;2482;49.154;8.254;2022-07-06T10:17:01;22.80;99.90
4934;DHT22;2482;49.154;8.254;2022-07-06T10:19:32;22.90;99.90
4934;DHT22;2482;49.154;8.254;2022-07-06T10:22:01;22.50;99.90
4934;DHT22;2482;49.154;8.254;2022-07-06T10:24:30;22.50;99.90
4934;DHT22;2482;49.154;8.254;2022-07-06T10:27:01;22.30;99.90
4934;DHT22;2482;49.154;8.254;2022-07-06T10:29:30;22.30;99.90
4934;DHT22;2482;49.154;8.254;2022-07-06T10:31:57;22.50;99.90
4934;DHT22;2482;49.154;8.254;2022-07-06T10:34:25;22.60;99.90
4934;DHT22;2482;49.154;8.254;2022-07-06T10:36:53;22.70;99.90
4934;DHT22;2482;49.154;8.254;2022-07-06T10:39:51;23.10;99.90
4934;DHT22;2482;49.154;8.254;2022-07-06T10:43:00;23.50;99.90
4934;DHT22;2482;49.154;8.254;2022-07-06T10:48:33;23.50;99.90
4934;DHT22;2482;49.154;8.254;2022-07-06T10:51:01;23.90;99.90
4934;DHT22;2482;49.154;8.254;2022-07-06T10:53:33;24.50;99.90
4934;DHT22;2482;49.154;8.254;2022-07-06T10:56:11;24.90;99.90
4934;DHT22;2482;49.154;8.254;2022-07-06T10:58:51;24.90;99.90
4934;DHT22;2482;49.154;8.254;2022-07-06T11:01:20;23.80;99.90
4934;DHT22;2482;49.154;8.254;2022-07-06T11:06:25;23.60;99.90
4934;DHT22;2482;49.154;8.254;2022-07-06T11:08:56;23.30;99.90
4934;DHT22;2482;49.154;8.254;2022-07-06T11:19:19;24.00;99.90
4934;DHT22;2482;49.154;8.254;2022-07-06T11:21:48;24.90;99.90
4934;DHT22;2482;49.154;8.254;2022-07-06T11:24:23;25.70;99.90
4934;DHT22;2482;49.154;8.254;2022-07-06T11:26:56;25.50;99.90
4934;DHT22;2482;49.154;8.254;2022-07-06T11:29:25;25.50;99.90
4934;DHT22;2482;49.154;8.254;2022-07-06T11:31:58;25.20;99.90
4934;DHT22;2482;49.154;8.254;2022-07-06T11:34:35;24.10;99.90
4934;DHT22;2482;49.154;8.254;2022-07-06T11:37:09;23.60;99.90
4934;DHT22;2482;49.154;8.254;2022-07-06T11:39:41;23.30;99.90
4934;DHT22;2482;49.154;8.254;2022-07-06T11:42:11;23.50;99.90
4934;DHT22;2482;49.154;8.254;2022-07-06T11:44:40;23.70;99.90
4934;DHT22;2482;49.154;8.254;2022-07-06T11:47:09;24.50;99.90
4934;DHT22;2482;49.154;8.254;2022-07-06T11:49:39;24.30;99.90
4934;DHT22;2482;49.154;8.254;2022-07-06T11:52:12;24.10;99.90
4934;DHT22;2482;49.154;8.254;2022-07-06T11:54:41;24.10;99.90
4934;DHT22;2482;49.154;8.254;2022-07-06T11:57:11;24.50;99.90
4934;DHT22;2482;49.154;8.254;2022-07-06T11:59:40;24.50;99.90
4934;DHT22;2482;49.154;8.254;2022-07-06T12:02:12;24.70;99.90
4934;DHT22;2482;49.154;8.254;2022-07-06T12:04:43;25.30;99.90
4934;DHT22;2482;49.154;8.254;2022-07-06T12:07:16;25.40;99.90
4934;DHT22;2482;49.154;8.254;2022-07-06T12:09:45;25.10;99.90
4934;DHT22;2482;49.154;8.254;2022-07-06T12:12:13;24.30;99.90
4934;DHT22;2482;49.154;8.254;2022-07-06T12:14:41;23.50;99.90
4934;DHT22;2482;49.154;8.254;2022-07-06T12:17:13;23.90;99.90
4934;DHT22;2482;49.154;8.254;2022-07-06T12:19:42;24.60;99.90
4934;DHT22;2482;49.154;8.254;2022-07-06T12:22:10;25.00;99.90
4934;DHT22;2482;49.154;8.254;2022-07-06T12:24:42;24.60;99.90
4934;DHT22;2482;49.154;8.254;2022-07-06T12:27:15;24.40;99.90
4934;DHT22;2482;49.154;8.254;2022-07-06T12:29:44;24.40;99.90
4934;DHT22;2482;49.154;8.254;2022-07-06T12:32:20;24.90;99.90
4934;DHT22;2482;49.154;8.254;2022-07-06T12:35:07;25.20;99.80
4934;DHT22;2482;49.154;8.254;2022-07-06T12:37:35;25.00;98.40
4934;DHT22;2482;49.154;8.254;2022-07-06T12:40:12;25.10;98.90
4934;DHT22;2482;49.154;8.254;2022-07-06T12:42:46;25.10;97.30
4934;DHT22;2482;49.154;8.254;2022-07-06T12:45:14;25.30;99.90
4934;DHT22;2482;49.154;8.254;2022-07-06T12:47:59;25.50;99.90
4934;DHT22;2482;49.154;8.254;2022-07-06T12:50:32;25.70;97.80
4934;DHT22;2482;49.154;8.254;2022-07-06T12:53:03;25.40;99.40
4934;DHT22;2482;49.154;8.254;2022-07-06T12:55:31;25.10;97.70
4934;DHT22;2482;49.154;8.254;2022-07-06T12:57:58;25.60;97.90
4934;DHT22;2482;49.154;8.254;2022-07-06T13:00:26;25.70;97.00
4934;DHT22;2482;49.154;8.254;2022-07-06T13:02:54;25.40;96.10
4934;DHT22;2482;49.154;8.254;2022-07-06T13:05:38;25.70;97.70
4934;DHT22;2482;49.154;8.254;2022-07-06T13:08:06;26.00;94.20
4934;DHT22;2482;49.154;8.254;2022-07-06T13:10:35;26.40;95.00
4934;DHT22;2482;49.154;8.254;2022-07-06T13:13:02;26.10;96.10
4934;DHT22;2482;49.154;8.254;2022-07-06T13:15:29;25.50;96.60
4934;DHT22;2482;49.154;8.254;2022-07-06T13:17:57;25.70;94.10
4934;DHT22;2482;49.154;8.254;2022-07-06T13:20:24;25.70;93.20
4934;DHT22;2482;49.154;8.254;2022-07-06T13:22:51;25.90;92.10
4934;DHT22;2482;49.154;8.254;2022-07-06T13:25:18;26.10;91.30
4934;DHT22;2482;49.154;8.254;2022-07-06T13:27:45;26.20;92.70
4934;DHT22;2482;49.154;8.254;2022-07-06T13:30:12;26.10;93.80
4934;DHT22;2482;49.154;8.254;2022-07-06T13:32:39;26.50;92.30
4934;DHT22;2482;49.154;8.254;2022-07-06T13:35:07;26.40;93.00
4934;DHT22;2482;49.154;8.254;2022-07-06T13:37:36;26.50;91.90
4934;DHT22;2482;49.154;8.254;2022-07-06T13:40:03;26.70;90.90
4934;DHT22;2482;49.154;8.254;2022-07-06T13:42:31;26.40;90.50
4934;DHT22;2482;49.154;8.254;2022-07-06T13:44:58;25.90;90.10
4934;DHT22;2482;49.154;8.254;2022-07-06T13:47:25;25.90;90.00
4934;DHT22;2482;49.154;8.254;2022-07-06T13:49:52;26.00;89.00
4934;DHT22;2482;49.154;8.254;2022-07-06T13:52:19;26.10;89.80
4934;DHT22;2482;49.154;8.254;2022-07-06T13:54:47;26.20;91.80
4934;DHT22;2482;49.154;8.254;2022-07-06T13:57:14;25.80;92.60
4934;DHT22;2482;49.154;8.254;2022-07-06T13:59:41;25.40;92.80
4934;DHT22;2482;49.154;8.254;2022-07-06T14:02:09;25.50;94.50
4934;DHT22;2482;49.154;8.254;2022-07-06T14:04:37;25.30;93.40
4934;DHT22;2482;49.154;8.254;2022-07-06T14:07:07;25.10;93.90
4934;DHT22;2482;49.154;8.254;2022-07-06T14:09:34;24.90;91.50
4934;DHT22;2482;49.154;8.254;2022-07-06T14:12:02;24.70;91.70
4934;DHT22;2482;49.154;8.254;2022-07-06T14:14:38;24.60;93.20
4934;DHT22;2482;49.154;8.254;2022-07-06T14:17:05;24.80;93.20
4934;DHT22;2482;49.154;8.254;2022-07-06T14:19:32;25.20;92.60
4934;DHT22;2482;49.154;8.254;2022-07-06T14:21:59;25.50;92.10
4934;DHT22;2482;49.154;8.254;2022-07-06T14:24:26;25.80;91.70
4934;DHT22;2482;49.154;8.254;2022-07-06T14:26:58;25.90;91.10
4934;DHT22;2482;49.154;8.254;2022-07-06T14:29:25;25.40;92.00
4934;DHT22;2482;49.154;8.254;2022-07-06T14:31:56;25.10;91.80
4934;DHT22;2482;49.154;8.254;2022-07-06T14:34:23;25.00;92.10
4934;DHT22;2482;49.154;8.254;2022-07-06T14:36:54;24.70;92.60
4934;DHT22;2482;49.154;8.254;2022-07-06T14:39:23;24.30;92.10
4934;DHT22;2482;49.154;8.254;2022-07-06T14:41:50;24.40;92.00
4934;DHT22;2482;49.154;8.254;2022-07-06T14:44:17;24.60;91.90
4934;DHT22;2482;49.154;8.254;2022-07-06T14:46:44;24.70;91.60
4934;DHT22;2482;49.154;8.254;2022-07-06T14:49:11;24.40;91.20
4934;DHT22;2482;49.154;8.254;2022-07-06T14:51:46;24.50;93.90
4934;DHT22;2482;49.154;8.254;2022-07-06T14:54:14;24.40;92.20
4934;DHT22;2482;49.154;8.254;2022-07-06T14:56:41;24.20;92.20
4934;DHT22;2482;49.154;8.254;2022-07-06T14:59:09;24.20;92.90
4934;DHT22;2482;49.154;8.254;2022-07-06T15:01:52;23.90;92.50
4934;DHT22;2482;49.154;8.254;2022-07-06T15:04:20;23.80;92.40
4934;DHT22;2482;49.154;8.254;2022-07-06T15:06:49;23.70;92.20
4934;DHT22;2482;49.154;8.254;2022-07-06T15:09:22;23.60;92.50
4934;DHT22;2482;49.154;8.254;2022-07-06T15:11:49;23.70;92.00
4934;DHT22;2482;49.154;8.254;2022-07-06T15:14:16;23.70;90.90
4934;DHT22;2482;49.154;8.254;2022-07-06T15:16:44;23.60;93.00
4934;DHT22;2482;49.154;8.254;2022-07-06T15:19:12;23.70;92.60
4934;DHT22;2482;49.154;8.254;2022-07-06T15:21:39;23.70;93.60
4934;DHT22;2482;49.154;8.254;2022-07-06T15:24:06;23.70;92.90
4934;DHT22;2482;49.154;8.254;2022-07-06T15:26:33;23.70;92.70
4934;DHT22;2482;49.154;8.254;2022-07-06T15:29:00;23.60;94.00
4934;DHT22;2482;49.154;8.254;2022-07-06T15:31:27;23.50;92.00
4934;DHT22;2482;49.154;8.254;2022-07-06T15:33:54;23.40;92.00
4934;DHT22;2482;49.154;8.254;2022-07-06T15:36:21;23.20;91.90
4934;DHT22;2482;49.154;8.254;2022-07-06T15:38:49;23.30;93.30
4934;DHT22;2482;49.154;8.254;2022-07-06T15:41:15;23.30;94.20
4934;DHT22;2482;49.154;8.254;2022-07-06T15:43:42;23.20;92.60
4934;DHT22;2482;49.154;8.254;2022-07-06T15:46:11;23.30;92.80
4934;DHT22;2482;49.154;8.254;2022-07-06T15:48:38;23.50;93.10
4934;DHT22;2482;49.154;8.254;2022-07-06T15:51:05;23.50;93.60
4934;DHT22;2482;49.154;8.254;2022-07-06T15:53:33;23.40;91.80
4934;DHT22;2482;49.154;8.254;2022-07-06T15:56:00;23.30;93.10
4934;DHT22;2482;49.154;8.254;2022-07-06T15:58:27;23.30;93.30
4934;DHT22;2482;49.154;8.254;2022-07-06T16:00:54;23.30;92.80
4934;DHT22;2482;49.154;8.254;2022-07-06T16:03:21;23.10;92.30
4934;DHT22;2482;49.154;8.254;2022-07-06T16:05:49;23.10;93.20
4934;DHT22;2482;49.154;8.254;2022-07-06T16:08:38;23.10;92.90
4934;DHT22;2482;49.154;8.254;2022-07-06T16:11:12;23.20;93.50
4934;DHT22;2482;49.154;8.254;2022-07-06T16:13:40;23.10;93.40
4934;DHT22;2482;49.154;8.254;2022-07-06T16:16:08;22.90;93.20
4934;DHT22;2482;49.154;8.254;2022-07-06T16:18:36;23.00;92.90
4934;DHT22;2482;49.154;8.254;2022-07-06T16:21:04;22.90;94.00
4934;DHT22;2482;49.154;8.254;2022-07-06T16:23:31;22.90;93.30
4934;DHT22;2482;49.154;8.254;2022-07-06T16:25:58;23.00;94.90
4934;DHT22;2482;49.154;8.254;2022-07-06T16:28:26;23.00;93.20
4934;DHT22;2482;49.154;8.254;2022-07-06T16:30:53;23.00;94.10
4934;DHT22;2482;49.154;8.254;2022-07-06T16:33:20;23.20;94.30
4934;DHT22;2482;49.154;8.254;2022-07-06T16:35:47;23.20;93.60
4934;DHT22;2482;49.154;8.254;2022-07-06T16:38:21;23.20;93.40
4934;DHT22;2482;49.154;8.254;2022-07-06T16:40:48;23.00;93.60
4934;DHT22;2482;49.154;8.254;2022-07-06T16:43:15;23.00;93.80